Thursday, June 30, 2016
05:01 UTC
  |  Log In   |  Register Free
Airport Search:

Clayton Municipal Airport
(11A)

Clayton Municipal Airport Diagram
No Airport Diagram Available

FAA data valid effective May 26 2016 - Jul 21 2016 (unless otherwise noted).

 
 
 
 
 
 
 
 
 
 
 
 
 
 
Current Aviation Weather for 11A

Weather Summary


Current weather conditions are not available for 11A - The nearest NOAA weather station is at EUF, (18.6 nm NE from 11A)

The most recent METAR observation for 11A was updated at: 12:58 UTC
METAR for 11A is not available. Closest METAR is for KDHN 33.8 nm NW
KDHN  (33.8 nm NW)   (most recent observation was updated at 30:04 UTC)
300453Z AUTO 21003KT 10SM CLR 24/22 A3001 RMK AO2 SLP154 T02440222

KLOR  (34.5 nm NE)   (most recent observation was updated at 30:04 UTC)
300453Z AUTO 00000KT 10SM CLR 24/22 A2996 RMK AO2 SLP142 T02440222 403390222 $

TAF for 11A is not available.
KTOI
292320Z 3000/3024 30003KT P6SM VCTS SCT050CB FM300200 00000KT P6SM SCT150 TEMPO 3009/3012 5SM BR FM301700 16004KT P6SM VCTS BKN040CB

KDHN  (33.8 nm NW)   (most recent observation was updatred at 29:23 UTC)
292320Z 3000/3024 19008KT P6SM BKN250 FM301800 17007KT P6SM VCTS BKN030CB BKN100


GlobalAir.com is loading additional information.
 Current Weather at TOI
76.0 F° (24.4 C°)

North winds at 0.0 mph
Pressure:
29.97 in
Humidity:
94%
Wind:
North at 0.0 mph
Dew Point:
73.9 F° (23.3 C°)
Visibility:
10.00 mi
11A NOAA Radar




Find All Airport Services Find A Hotel Find A Rental Car Find A Golf Course Find A Restaurant $100 Hamburger



Airport Weather Forecast for 11A

Translated METAR for KTOI (0453 UTC)
METAR:
KTOI 300453Z AUTO 00000KT 9SM CLR 23/23 A2997 RMK AO2 SLP145 T02330233 TSNO
Conditions at:
KTOI (Troy Muni Airport At N Kenneth Campbell Field, AL) observed 0453 UTC 30 June 2016
Temperature:
23°C (73.4°F)
Dewpoint:
23°C (73.4°F) [RH = 100]
Pressure:
29.97 inches Hg (1014.9 mb)
pressure at sea level is 145 in Hg
Winds:
from the N (000 degrees) at 0 mph (0 knots: 0 m/s)
Visibility:
9 mile(s)
Ceiling:
at least 12,000 feet AGL
Clouds:
Clear below 12,000 feet AGL
Remarks:
site is un-manned
site is automated and HAS a precipitation sensor

Translated TAF for KTOI (Troy Muni Airport At N Kenneth Campbell Field, AL) (2320 UTC)
TAF text:
KTOI 292320Z 3000/3024 30003KT P6SM VCTS SCT050CB
Forecast period:
Thursday Jun 30 2016 00:00 UTC - Thursday Jun 30 2016 24:00 UTC
Forecast type:
FROM: standard forecast or significant change
Winds:
from the WNW (300 degrees) at 3.5 mph (3 knots: 1.5 m/s)
Visibility:
6 or more mile(s) (9.7+ km)
Ceiling:
Clouds:
Weather:
Moderate In Vicinity Thunderstorm
TAF text:
FM300200 00000KT P6SM SCT150
Forecast period:
Thursday Jun 30 2016 02:00 UTC - Thursday Jun 30 2016 17:00 UTC
Forecast type:
FROM: standard forecast or significant change
Winds:
from the N (000 degrees) at 0 mph (0 knots: 0 m/s)
Visibility:
6 or more mile(s) (9.7+ km)
Ceiling:
at least 12,000 feet AGL
Clouds:
Scattered Clouds at 15,000 feet AGL
Weather:
no significant weather observed at this time
TAF text:
3009/3012 5SM BR
Forecast period:
Friday Jul 01 2016 09:00 UTC - Friday Jul 01 2016 12:00 UTC
Forecast type:
FROM: standard forecast or significant change
Winds:
Visibility:
5 mile(s) (8 km)
Ceiling:
Clouds:
Weather:
Moderate Mist
TAF text:
FM301700 16004KT P6SM VCTS BKN040CB
Forecast period:
Thursday Jun 30 2016 17:00 UTC - Thursday Jun 30 2016 24:00 UTC
Forecast type:
FROM: standard forecast or significant change
Winds:
from the SSE (160 degrees) at 4.6 mph (4 knots: 2.1 m/s)
Visibility:
6 or more mile(s) (9.7+ km)
Ceiling:
Clouds:
Weather:
Moderate In Vicinity Thunderstorm
FBO's on the Field
FBO Company Facility Photos Services Transportation Aviation Fuel Prices: Prices include tax
Catering Weather Repair Courtesy Rental Type 100LL JetA JetA+ MOGAS 8087
 
Add another FBO Facility Photos Catering Weather Repair Courtesy Rental Type 100LL JetA JetA+ MOGAS 8087
Services Transportation Aviation Fuel Prices: Prices include tax
There are no FBO's currently reporting fuel at 11A. List your FBO now


model-print
model-print
model-print
model-print